createdAt,value
2019-02-04T00:00:57.258Z,18.36
2019-02-04T00:01:57.233Z,18.34
2019-02-04T00:02:57.222Z,18.36
2019-02-04T00:03:57.193Z,18.38
2019-02-04T00:04:57.200Z,18.31
2019-02-04T00:05:57.230Z,18.36
2019-02-04T00:06:57.709Z,18.38
2019-02-04T00:07:57.166Z,18.41
2019-02-04T00:08:57.140Z,18.41
2019-02-04T00:09:57.148Z,18.35
2019-02-04T00:10:59.184Z,18.31
2019-02-04T00:11:57.127Z,18.38
2019-02-04T00:12:57.152Z,18.35
2019-02-04T00:13:57.097Z,18.39
2019-02-04T00:14:57.075Z,18.32
2019-02-04T00:15:57.096Z,18.38
2019-02-04T00:16:57.061Z,18.36
2019-02-04T00:17:57.064Z,18.35
2019-02-04T00:18:57.040Z,18.36
2019-02-04T00:19:57.027Z,18.38
2019-02-04T00:20:57.037Z,18.38
2019-02-04T00:21:57.105Z,18.32
2019-02-04T00:22:57.031Z,18.36
2019-02-04T00:23:56.998Z,18.34
2019-02-04T00:24:56.965Z,18.35
2019-02-04T00:25:56.972Z,18.35
2019-02-04T00:26:56.970Z,18.35
2019-02-04T00:27:56.936Z,18.38
2019-02-04T00:28:56.946Z,18.39
2019-02-04T00:29:56.967Z,18.34
2019-02-04T00:30:56.901Z,18.35
2019-02-04T00:31:56.949Z,18.35
2019-02-04T00:32:56.892Z,18.38
2019-02-04T00:33:56.868Z,18.35
2019-02-04T00:34:56.958Z,18.29
2019-02-04T00:35:56.865Z,18.39
2019-02-04T00:36:57.041Z,18.36
2019-02-04T00:37:56.831Z,18.36
2019-02-04T00:38:56.822Z,18.29
2019-02-04T00:39:56.804Z,18.36
2019-02-04T00:40:56.799Z,18.29
2019-02-04T00:41:56.807Z,18.29
2019-02-04T00:42:56.775Z,18.32
2019-02-04T00:43:56.763Z,18.35
2019-02-04T00:44:56.751Z,18.29
2019-02-04T00:45:57.407Z,18.34
2019-02-04T00:46:56.747Z,18.31
2019-02-04T00:47:56.726Z,18.32
2019-02-04T00:48:56.728Z,18.21
2019-02-04T00:49:56.740Z,18.36
2019-02-04T00:50:56.703Z,18.31
2019-02-04T00:51:56.775Z,18.32
2019-02-04T00:52:56.707Z,18.36
2019-02-04T00:53:56.654Z,18.36
2019-02-04T00:54:56.643Z,18.29
2019-02-04T00:55:56.637Z,18.34
2019-02-04T00:56:56.636Z,18.34
2019-02-04T00:57:56.630Z,18.36
2019-02-04T00:58:56.602Z,18.34
2019-02-04T00:59:56.597Z,18.29
2019-02-04T01:00:56.573Z,18.28
2019-02-04T01:01:56.616Z,18.31
2019-02-04T01:02:56.564Z,18.32
2019-02-04T01:03:57.293Z,18.32
2019-02-04T01:04:56.543Z,18.28
2019-02-04T01:05:56.734Z,18.35
2019-02-04T01:06:56.542Z,18.29
2019-02-04T01:07:56.506Z,18.32
2019-02-04T01:08:56.488Z,18.31
2019-02-04T01:09:56.488Z,18.29
2019-02-04T01:10:56.468Z,18.32
2019-02-04T01:11:56.474Z,18.28
2019-02-04T01:12:56.438Z,18.39
2019-02-04T01:13:56.474Z,18.36
2019-02-04T01:14:56.429Z,18.39
2019-02-04T01:15:56.415Z,18.35
2019-02-04T01:17:03.235Z,18.29
2019-02-04T01:17:56.393Z,18.29
2019-02-04T01:18:56.402Z,18.35
2019-02-04T01:19:56.382Z,18.29
2019-02-04T01:20:56.351Z,18.35
2019-02-04T01:21:56.361Z,18.36
2019-02-04T01:22:56.382Z,18.25
2019-02-04T01:23:56.319Z,18.32
2019-02-04T01:24:56.314Z,18.26
2019-02-04T01:25:56.325Z,18.32
2019-02-04T01:26:56.315Z,18.29
2019-02-04T01:27:56.296Z,18.29
2019-02-04T01:28:56.274Z,18.28
2019-02-04T01:29:56.389Z,18.32
2019-02-04T01:30:56.261Z,18.28
2019-02-04T01:31:56.246Z,18.31
2019-02-04T01:32:56.234Z,18.35
2019-02-04T01:33:56.236Z,18.25
2019-02-04T01:34:56.211Z,18.25
2019-02-04T01:35:56.191Z,18.28
2019-02-04T01:36:56.198Z,18.34
2019-02-04T01:37:56.174Z,18.28
2019-02-04T01:38:56.176Z,18.38
2019-02-04T01:39:56.170Z,18.38
2019-02-04T01:40:56.156Z,18.31
2019-02-04T01:41:56.142Z,18.29
2019-02-04T01:42:56.177Z,18.26
2019-02-04T01:43:56.266Z,18.36
2019-02-04T01:44:56.139Z,18.34
2019-02-04T01:45:56.144Z,18.25
2019-02-04T01:46:56.103Z,18.32
2019-02-04T01:47:56.077Z,18.31
2019-02-04T01:48:56.049Z,18.25
2019-02-04T01:49:56.153Z,18.32
2019-02-04T01:50:56.037Z,18.29
2019-02-04T01:51:56.045Z,18.29
2019-02-04T01:52:56.010Z,18.23
2019-02-04T01:53:56.009Z,18.28
2019-02-04T01:54:55.986Z,18.29
2019-02-04T01:55:55.980Z,18.31
2019-02-04T01:56:55.975Z,18.32
2019-02-04T01:57:56.002Z,18.32
2019-02-04T01:58:55.943Z,18.31
2019-02-04T01:59:55.941Z,18.28
2019-02-04T02:00:55.920Z,18.31
2019-02-04T02:01:55.920Z,18.31
2019-02-04T02:02:55.906Z,18.35
2019-02-04T02:03:55.917Z,18.38
2019-02-04T02:04:55.878Z,18.32
2019-02-04T02:05:55.866Z,18.36
2019-02-04T02:06:55.856Z,18.31
2019-02-04T02:07:55.856Z,18.34
2019-02-04T02:08:55.868Z,18.20
2019-02-04T02:09:55.830Z,18.28
2019-02-04T02:10:55.818Z,18.19
2019-02-04T02:11:55.818Z,18.26
2019-02-04T02:12:55.795Z,18.26
2019-02-04T02:13:55.779Z,18.26
2019-02-04T02:14:55.766Z,18.19
2019-02-04T02:15:55.769Z,18.20
2019-02-04T02:16:55.759Z,18.21
2019-02-04T02:17:55.746Z,18.23
2019-02-04T02:18:55.727Z,18.25
2019-02-04T02:19:55.731Z,18.23
2019-02-04T02:20:55.704Z,18.19
2019-02-04T02:21:55.698Z,18.29
2019-02-04T02:22:55.707Z,18.19
2019-02-04T02:23:55.669Z,18.29
2019-02-04T02:24:55.654Z,18.17
2019-02-04T02:25:55.647Z,18.31
2019-02-04T02:26:55.650Z,18.28
2019-02-04T02:27:55.644Z,18.28
2019-02-04T02:28:55.613Z,18.31
2019-02-04T02:29:55.617Z,18.36
2019-02-04T02:30:55.642Z,18.26
2019-02-04T02:31:55.593Z,18.34
2019-02-04T02:32:55.590Z,18.32
2019-02-04T02:33:55.571Z,18.31
2019-02-04T02:34:55.559Z,18.36
2019-02-04T02:35:55.550Z,18.25
2019-02-04T02:36:55.544Z,18.35
2019-02-04T02:37:55.532Z,18.32
2019-02-04T02:38:55.510Z,18.23
2019-02-04T02:39:55.492Z,18.31
2019-02-04T02:40:55.500Z,18.25
2019-02-04T02:41:55.501Z,18.35
2019-02-04T02:42:55.499Z,18.31
2019-02-04T02:43:55.462Z,18.23
2019-02-04T02:44:55.445Z,18.23
2019-02-04T02:45:55.437Z,18.23
2019-02-04T02:46:55.417Z,18.26
2019-02-04T02:47:55.420Z,18.26
2019-02-04T02:48:55.397Z,18.23
2019-02-04T02:49:55.405Z,18.23
2019-02-04T02:50:55.408Z,18.23
2019-02-04T02:51:55.361Z,18.25
2019-02-04T02:52:55.366Z,18.17
2019-02-04T02:53:55.352Z,18.21
2019-02-04T02:54:55.333Z,18.25
2019-02-04T02:55:55.326Z,18.21
2019-02-04T02:56:55.313Z,18.21
2019-02-04T02:57:55.326Z,18.20
2019-02-04T02:58:55.287Z,18.17
2019-02-04T02:59:55.293Z,18.29
2019-02-04T03:00:55.280Z,18.25
2019-02-04T03:01:55.261Z,18.28
2019-02-04T03:02:55.273Z,18.25
2019-02-04T03:03:55.232Z,18.21
2019-02-04T03:04:55.225Z,18.28
2019-02-04T03:05:55.205Z,18.19
2019-02-04T03:06:55.203Z,18.26
2019-02-04T03:07:55.239Z,18.23
2019-02-04T03:08:55.173Z,18.19
2019-02-04T03:09:55.181Z,18.28
2019-02-04T03:10:55.192Z,18.26
2019-02-04T03:11:55.150Z,18.25
2019-02-04T03:12:55.334Z,18.26
2019-02-04T03:13:55.125Z,18.20
2019-02-04T03:14:55.120Z,18.21
2019-02-04T03:15:55.114Z,18.28
2019-02-04T03:16:55.107Z,18.19
2019-02-04T03:17:55.102Z,18.26
2019-02-04T03:18:55.089Z,18.28
2019-02-04T03:19:55.057Z,18.25
2019-02-04T03:20:55.057Z,18.17
2019-02-04T03:21:55.049Z,18.25
2019-02-04T03:22:55.039Z,18.26
2019-02-04T03:23:55.019Z,18.19
2019-02-04T03:24:55.008Z,18.25
2019-02-04T03:25:55.139Z,18.20
2019-02-04T03:26:54.991Z,18.23
2019-02-04T03:27:54.993Z,18.23
2019-02-04T03:28:54.996Z,18.28
2019-02-04T03:29:54.946Z,18.23
2019-02-04T03:30:54.975Z,18.26
2019-02-04T03:31:54.935Z,18.21
2019-02-04T03:32:54.925Z,18.26
2019-02-04T03:33:54.919Z,18.28
2019-02-04T03:34:54.939Z,18.28
2019-02-04T03:35:54.887Z,18.21
2019-02-04T03:36:54.874Z,18.23
2019-02-04T03:37:54.933Z,18.25
2019-02-04T03:38:54.864Z,18.19
2019-02-04T03:39:54.835Z,18.23
2019-02-04T03:40:54.826Z,18.23
2019-02-04T03:41:54.840Z,18.25
2019-02-04T03:42:54.866Z,18.23
2019-02-04T03:43:57.210Z,18.21
2019-02-04T03:44:54.780Z,18.25
2019-02-04T03:45:54.789Z,18.26
2019-02-04T03:46:54.759Z,18.25
2019-02-04T03:48:04.662Z,18.23
2019-02-04T03:48:54.797Z,18.26
2019-02-04T03:49:54.723Z,18.21
2019-02-04T03:50:54.719Z,18.28
2019-02-04T03:51:54.710Z,18.17
2019-02-04T03:52:54.722Z,18.21
2019-02-04T03:53:54.700Z,18.28
2019-02-04T03:54:54.679Z,18.21
2019-02-04T03:55:54.680Z,18.21
2019-02-04T03:56:54.655Z,18.25
2019-02-04T03:57:54.657Z,18.28
2019-02-04T03:58:54.638Z,18.23
2019-02-04T03:59:57.055Z,18.23
2019-02-04T04:00:54.663Z,18.21
2019-02-04T04:01:54.600Z,18.26
2019-02-04T04:02:54.646Z,18.28
2019-02-04T04:03:54.604Z,18.28
2019-02-04T04:04:54.559Z,18.31
2019-02-04T04:05:54.558Z,18.23
2019-02-04T04:06:54.553Z,18.26
2019-02-04T04:07:54.557Z,18.17
2019-02-04T04:08:54.527Z,18.23
2019-02-04T04:09:54.511Z,18.17
2019-02-04T04:10:54.543Z,18.21
2019-02-04T04:11:54.485Z,18.26
2019-02-04T04:12:54.480Z,18.28
2019-02-04T04:13:54.486Z,18.26
2019-02-04T04:14:54.473Z,18.23
2019-02-04T04:15:54.454Z,18.25
2019-02-04T04:16:54.442Z,18.20
2019-02-04T04:17:54.485Z,18.23
2019-02-04T04:18:54.470Z,18.21
2019-02-04T04:19:54.428Z,18.20
2019-02-04T04:20:54.409Z,18.16
2019-02-04T04:21:54.456Z,18.14
2019-02-04T04:22:54.377Z,18.17
2019-02-04T04:23:54.395Z,18.25
2019-02-04T04:24:54.374Z,18.20
2019-02-04T04:25:54.350Z,18.21
2019-02-04T04:26:54.338Z,18.17
2019-02-04T04:27:54.546Z,18.19
2019-02-04T04:28:54.330Z,18.20
2019-02-04T04:29:54.428Z,18.23
2019-02-04T04:30:54.305Z,18.20
2019-02-04T04:31:54.283Z,18.17
2019-02-04T04:32:54.333Z,18.21
2019-02-04T04:33:54.267Z,18.21
2019-02-04T04:34:54.239Z,18.21
2019-02-04T04:35:54.254Z,18.19
2019-02-04T04:36:54.271Z,18.23
2019-02-04T04:37:54.320Z,18.25
2019-02-04T04:38:54.212Z,18.20
2019-02-04T04:39:54.186Z,18.19
2019-02-04T04:40:54.172Z,18.20
2019-02-04T04:41:54.177Z,18.19
2019-02-04T04:42:54.153Z,18.20
2019-02-04T04:43:54.175Z,18.19
2019-02-04T04:44:54.130Z,18.19
2019-02-04T04:45:54.223Z,18.21
2019-02-04T04:46:54.121Z,18.23
2019-02-04T04:47:54.100Z,18.19
2019-02-04T04:48:55.728Z,18.23
2019-02-04T04:49:54.076Z,18.21
2019-02-04T04:50:54.065Z,18.19
2019-02-04T04:51:54.078Z,18.21
2019-02-04T04:52:54.056Z,18.20
2019-02-04T04:53:54.051Z,18.14
2019-02-04T04:54:54.026Z,18.21
2019-02-04T04:55:54.016Z,18.20
2019-02-04T04:56:54.003Z,18.20
2019-02-04T04:57:54.011Z,18.23
2019-02-04T04:58:53.998Z,18.17
2019-02-04T04:59:54.055Z,18.16
2019-02-04T05:00:53.957Z,18.26
2019-02-04T05:01:53.944Z,18.21
2019-02-04T05:02:54.030Z,18.23
2019-02-04T05:03:53.941Z,18.20
2019-02-04T05:04:53.987Z,18.16
2019-02-04T05:05:53.939Z,18.19
2019-02-04T05:06:53.893Z,18.17
2019-02-04T05:07:53.879Z,18.14
2019-02-04T05:08:53.924Z,18.20
2019-02-04T05:09:54.084Z,18.23
2019-02-04T05:10:53.845Z,18.20
2019-02-04T05:11:53.848Z,18.17
2019-02-04T05:12:53.840Z,18.25
2019-02-04T05:13:53.838Z,18.16
2019-02-04T05:14:53.829Z,18.14
2019-02-04T05:15:53.802Z,18.16
2019-02-04T05:16:53.792Z,18.17
2019-02-04T05:17:53.767Z,18.16
2019-02-04T05:18:53.784Z,18.21
2019-02-04T05:19:53.753Z,18.20
2019-02-04T05:20:53.746Z,18.16
2019-02-04T05:21:53.734Z,18.10
2019-02-04T05:22:53.716Z,18.17
2019-02-04T05:23:53.721Z,18.14
2019-02-04T05:24:53.717Z,18.14
2019-02-04T05:25:53.680Z,18.13
2019-02-04T05:26:53.691Z,18.20
2019-02-04T05:27:53.664Z,18.19
2019-02-04T05:28:53.678Z,18.13
2019-02-04T05:29:53.660Z,18.17
2019-02-04T05:30:53.636Z,18.17
2019-02-04T05:31:53.612Z,18.20
2019-02-04T05:32:53.604Z,18.13
2019-02-04T05:33:53.604Z,18.21
2019-02-04T05:34:53.586Z,18.17
2019-02-04T05:35:53.590Z,18.14
2019-02-04T05:36:53.686Z,18.19
2019-02-04T05:37:53.590Z,18.23
2019-02-04T05:38:53.543Z,18.16
2019-02-04T05:39:53.557Z,18.11
2019-02-04T05:40:53.523Z,18.11
2019-02-04T05:41:53.516Z,18.21
2019-02-04T05:42:53.502Z,18.17
2019-02-04T05:43:53.564Z,18.14
2019-02-04T05:44:53.478Z,18.14
2019-02-04T05:45:53.462Z,18.17
2019-02-04T05:46:53.463Z,18.19
2019-02-04T05:47:53.688Z,18.11
2019-02-04T05:48:53.432Z,18.16
2019-02-04T05:49:53.463Z,18.16
2019-02-04T05:50:53.409Z,18.17
2019-02-04T05:51:55.138Z,18.11
2019-02-04T05:52:53.456Z,18.09
2019-02-04T05:53:53.437Z,18.07
2019-02-04T05:54:53.415Z,18.13
2019-02-04T05:55:53.399Z,18.07
2019-02-04T05:56:53.363Z,18.11
2019-02-04T05:57:53.340Z,18.10
2019-02-04T05:58:53.444Z,18.13
2019-02-04T05:59:53.356Z,18.04
2019-02-04T06:00:53.325Z,18.05
2019-02-04T06:01:53.302Z,17.96
2019-02-04T06:02:53.285Z,17.95
2019-02-04T06:03:53.269Z,17.83
2019-02-04T06:04:53.328Z,17.79
2019-02-04T06:05:53.263Z,17.65
2019-02-04T06:06:53.250Z,17.65
2019-02-04T06:07:53.231Z,17.51
2019-02-04T06:08:53.221Z,17.45
2019-02-04T06:09:53.222Z,17.39
2019-02-04T06:10:53.212Z,17.24
2019-02-04T06:11:53.221Z,17.32
2019-02-04T06:12:53.182Z,17.17
2019-02-04T06:13:53.171Z,17.21
2019-02-04T06:14:53.161Z,17.17
2019-02-04T06:15:53.166Z,17.15
2019-02-04T06:16:53.128Z,17.14
2019-02-04T06:17:53.129Z,17.14
2019-02-04T06:19:00.349Z,17.17
2019-02-04T06:19:53.118Z,17.18
2019-02-04T06:20:53.105Z,17.30
2019-02-04T06:21:53.308Z,17.27
2019-02-04T06:22:53.067Z,17.18
2019-02-04T06:23:53.070Z,17.28
2019-02-04T06:24:53.061Z,17.30
2019-02-04T06:25:53.047Z,17.27
2019-02-04T06:26:53.059Z,17.28
2019-02-04T06:27:53.049Z,17.32
2019-02-04T06:28:53.005Z,17.33
2019-02-04T06:29:53.027Z,17.30
2019-02-04T06:30:53.108Z,17.39
2019-02-04T06:31:53.108Z,17.36
2019-02-04T06:32:53.704Z,17.42
2019-02-04T06:33:52.967Z,17.42
2019-02-04T06:34:54.303Z,17.40
2019-02-04T06:35:56.018Z,17.42
2019-02-04T06:36:52.981Z,17.49
2019-02-04T06:37:52.974Z,17.54
2019-02-04T06:38:52.901Z,17.55
2019-02-04T06:39:52.902Z,17.57
2019-02-04T06:40:52.905Z,17.55
2019-02-04T06:41:52.905Z,17.57
2019-02-04T06:42:52.845Z,17.53
2019-02-04T06:43:52.886Z,17.58
2019-02-04T06:44:52.849Z,17.57
2019-02-04T06:45:52.949Z,17.58
2019-02-04T06:46:52.810Z,17.58
2019-02-04T06:47:52.826Z,17.63
2019-02-04T06:48:52.811Z,17.54
2019-02-04T06:49:52.796Z,17.65
2019-02-04T06:50:52.841Z,17.62
2019-02-04T06:51:53.255Z,17.70
2019-02-04T06:52:52.783Z,17.68
2019-02-04T06:53:52.730Z,17.70
2019-02-04T06:54:52.752Z,17.65
2019-02-04T06:55:52.747Z,17.76
2019-02-04T06:56:52.835Z,17.77
2019-02-04T06:57:52.787Z,17.79
2019-02-04T06:58:52.677Z,17.77
2019-02-04T06:59:52.684Z,17.77
2019-02-04T07:00:52.683Z,17.73
2019-02-04T07:01:54.357Z,17.77
2019-02-04T07:02:52.640Z,17.77
2019-02-04T07:03:52.645Z,17.74
2019-02-04T07:04:52.659Z,17.92
2019-02-04T07:05:52.602Z,17.87
2019-02-04T07:06:52.942Z,17.94
2019-02-04T07:07:52.580Z,17.84
2019-02-04T07:08:52.615Z,17.86
2019-02-04T07:09:52.675Z,17.84
2019-02-04T07:10:52.579Z,17.91
2019-02-04T07:11:52.533Z,17.95
2019-02-04T07:12:52.592Z,17.96
2019-02-04T07:13:52.671Z,18.05
2019-02-04T07:14:52.528Z,17.89
2019-02-04T07:15:52.508Z,18.01
2019-02-04T07:16:52.472Z,17.94
2019-02-04T07:17:52.461Z,17.91
2019-02-04T07:18:52.482Z,18.04
2019-02-04T07:19:52.457Z,17.95
2019-02-04T07:20:52.579Z,17.91
2019-02-04T07:21:52.419Z,17.98
2019-02-04T07:22:52.407Z,18.02
2019-02-04T07:23:52.440Z,18.01
2019-02-04T07:24:52.410Z,18.04
2019-02-04T07:25:52.441Z,18.07
2019-02-04T07:26:52.419Z,18.07
2019-02-04T07:27:52.367Z,18.07
2019-02-04T07:28:52.363Z,18.05
2019-02-04T07:29:52.350Z,18.09
2019-02-04T07:30:52.336Z,18.13
2019-02-04T07:31:52.327Z,18.04
2019-02-04T07:32:52.316Z,18.11
2019-02-04T07:33:52.296Z,18.04
2019-02-04T07:34:52.307Z,18.07
2019-02-04T07:35:52.291Z,18.07
2019-02-04T07:36:52.267Z,18.14
2019-02-04T07:37:52.248Z,18.11
2019-02-04T07:38:52.307Z,18.10
2019-02-04T07:39:52.268Z,18.14
2019-02-04T07:40:52.231Z,18.17
2019-02-04T07:41:52.248Z,18.16
2019-02-04T07:42:52.216Z,18.17
2019-02-04T07:43:52.194Z,18.13
2019-02-04T07:44:52.210Z,18.16
2019-02-04T07:45:52.193Z,18.17
2019-02-04T07:46:52.411Z,18.23
2019-02-04T07:47:52.141Z,18.14
2019-02-04T07:48:52.128Z,18.07
2019-02-04T07:49:52.145Z,18.04
2019-02-04T07:50:53.237Z,17.98
2019-02-04T07:51:52.141Z,17.87
2019-02-04T07:52:55.048Z,17.92
2019-02-04T07:53:52.074Z,17.86
2019-02-04T07:54:52.310Z,17.79
2019-02-04T07:55:52.086Z,17.70
2019-02-04T07:56:52.036Z,17.73
2019-02-04T07:57:52.058Z,17.58
2019-02-04T07:58:52.043Z,17.51
2019-02-04T07:59:52.015Z,17.54
2019-02-04T08:00:52.013Z,17.42
2019-02-04T08:01:52.014Z,17.40
2019-02-04T08:02:52.926Z,17.40
2019-02-04T08:03:53.838Z,17.43
2019-02-04T08:04:51.962Z,17.40
2019-02-04T08:05:52.707Z,17.43
2019-02-04T08:06:51.989Z,17.39
2019-02-04T08:07:51.977Z,17.42
2019-02-04T08:08:52.038Z,17.45
2019-02-04T08:09:51.920Z,17.40
2019-02-04T08:10:51.926Z,17.40
2019-02-04T08:11:51.920Z,17.42
2019-02-04T08:13:01.069Z,17.43
2019-02-04T08:13:51.883Z,17.46
2019-02-04T08:14:51.843Z,17.47
2019-02-04T08:15:51.869Z,17.49
2019-02-04T08:16:54.827Z,17.57
2019-02-04T08:17:51.844Z,17.54
2019-02-04T08:18:51.883Z,17.58
2019-02-04T08:19:51.802Z,17.58
2019-02-04T08:20:51.805Z,17.57
2019-02-04T08:21:51.830Z,17.62
2019-02-04T08:22:55.333Z,17.57
2019-02-04T08:23:51.768Z,17.65
2019-02-04T08:24:51.745Z,17.58
2019-02-04T08:25:51.762Z,17.60
2019-02-04T08:26:51.732Z,17.58
2019-02-04T08:27:51.718Z,17.57
2019-02-04T08:28:51.755Z,17.57
2019-02-04T08:29:51.710Z,17.51
2019-02-04T08:30:51.675Z,17.57
2019-02-04T08:31:57.865Z,17.53
2019-02-04T08:32:51.683Z,17.57
2019-02-04T08:33:51.670Z,17.57
2019-02-04T08:34:51.640Z,17.54
2019-02-04T08:35:51.610Z,17.54
2019-02-04T08:36:51.635Z,17.58
2019-02-04T08:37:51.720Z,17.57
2019-02-04T08:38:51.586Z,17.53
2019-02-04T08:39:51.681Z,17.51
2019-02-04T08:40:51.591Z,17.54
2019-02-04T08:41:51.604Z,17.62
2019-02-04T08:42:51.540Z,17.57
2019-02-04T08:43:51.622Z,17.60
2019-02-04T08:44:51.547Z,17.60
2019-02-04T08:45:51.519Z,17.71
2019-02-04T08:46:51.543Z,17.71
2019-02-04T08:47:51.532Z,17.76
2019-02-04T08:48:51.475Z,17.73
2019-02-04T08:49:57.979Z,17.79
2019-02-04T08:50:51.470Z,17.89
2019-02-04T08:51:51.463Z,17.80
2019-02-04T08:52:51.466Z,17.77
2019-02-04T08:53:51.451Z,17.91
2019-02-04T08:54:51.418Z,17.86
2019-02-04T08:55:51.423Z,17.89
2019-02-04T08:56:51.455Z,17.92
2019-02-04T08:57:51.411Z,17.86
2019-02-04T08:58:51.405Z,17.87
2019-02-04T08:59:51.375Z,17.92
2019-02-04T09:00:51.354Z,17.84
2019-02-04T09:01:51.352Z,17.89
2019-02-04T09:02:51.334Z,17.92
2019-02-04T09:03:51.315Z,17.86
2019-02-04T09:04:51.317Z,17.92
2019-02-04T09:05:51.405Z,18.01
2019-02-04T09:06:51.314Z,17.99
2019-02-04T09:07:51.279Z,17.98
2019-02-04T09:08:51.308Z,18.02
2019-02-04T09:09:54.270Z,17.92
2019-02-04T09:10:51.243Z,18.07
2019-02-04T09:11:52.535Z,17.94
2019-02-04T09:12:51.223Z,17.94
2019-02-04T09:13:51.210Z,18.01
2019-02-04T09:14:54.208Z,18.01
2019-02-04T09:15:51.193Z,17.96
2019-02-04T09:16:51.193Z,17.99
2019-02-04T09:17:51.300Z,18.04
2019-02-04T09:18:51.913Z,18.09
2019-02-04T09:19:51.142Z,18.04
2019-02-04T09:20:51.131Z,18.07
2019-02-04T09:21:51.149Z,18.04
2019-02-04T09:22:54.142Z,18.07
2019-02-04T09:23:51.102Z,18.09
2019-02-04T09:24:51.171Z,18.07
2019-02-04T09:25:51.075Z,18.05
2019-02-04T09:26:51.069Z,18.02
2019-02-04T09:27:51.052Z,18.04
2019-02-04T09:28:51.028Z,18.04
2019-02-04T09:29:51.047Z,18.02
2019-02-04T09:30:51.031Z,18.05
2019-02-04T09:31:51.060Z,17.99
2019-02-04T09:32:50.997Z,17.96
2019-02-04T09:33:50.997Z,18.04
2019-02-04T09:34:50.980Z,17.95
2019-02-04T09:35:50.960Z,17.92
2019-02-04T09:36:50.990Z,17.96
2019-02-04T09:37:50.957Z,17.99
2019-02-04T09:38:50.942Z,17.96
2019-02-04T09:39:50.912Z,17.95
2019-02-04T09:40:50.958Z,17.89
2019-02-04T09:41:50.913Z,17.92
2019-02-04T09:42:51.380Z,17.95
2019-02-04T09:43:50.884Z,17.89
2019-02-04T09:44:50.867Z,17.87
2019-02-04T09:45:50.851Z,17.91
2019-02-04T09:46:50.939Z,17.81
2019-02-04T09:47:50.909Z,17.89
2019-02-04T09:48:50.890Z,17.96
2019-02-04T09:49:50.815Z,17.99
2019-02-04T09:50:50.899Z,18.01
2019-02-04T09:51:50.806Z,18.01
2019-02-04T09:52:50.783Z,18.04
2019-02-04T09:53:50.781Z,18.07
2019-02-04T09:54:50.772Z,18.10
2019-02-04T09:55:50.792Z,18.02
2019-02-04T09:56:50.746Z,18.09
2019-02-04T09:57:50.745Z,18.05
2019-02-04T09:58:50.933Z,18.05
2019-02-04T09:59:50.853Z,18.11
2019-02-04T10:00:50.683Z,18.14
2019-02-04T10:01:50.685Z,18.09
2019-02-04T10:02:50.667Z,18.17
2019-02-04T10:03:50.644Z,18.11
2019-02-04T10:04:50.671Z,18.10
2019-02-04T10:05:50.646Z,18.13
2019-02-04T10:06:51.398Z,18.14
2019-02-04T10:07:50.675Z,18.14
2019-02-04T10:08:50.607Z,18.05
2019-02-04T10:09:50.590Z,18.11
2019-02-04T10:10:50.574Z,18.17
2019-02-04T10:11:50.568Z,18.13
2019-02-04T10:12:52.597Z,18.17
2019-02-04T10:13:50.631Z,18.19
2019-02-04T10:14:50.547Z,18.25
2019-02-04T10:15:51.163Z,18.23
2019-02-04T10:16:51.157Z,18.28
2019-02-04T10:17:50.536Z,18.26
2019-02-04T10:18:53.541Z,18.29
2019-02-04T10:19:50.525Z,18.25
2019-02-04T10:20:50.493Z,18.32
2019-02-04T10:21:50.450Z,18.32
2019-02-04T10:22:50.578Z,18.19
2019-02-04T10:23:50.448Z,18.17
2019-02-04T10:24:50.423Z,18.26
2019-02-04T10:25:50.457Z,18.16
2019-02-04T10:26:50.399Z,18.28
2019-02-04T10:27:50.442Z,18.25
2019-02-04T10:28:50.391Z,18.23
2019-02-04T10:29:50.435Z,18.19
2019-02-04T10:30:50.364Z,18.21
2019-02-04T10:31:50.423Z,18.17
2019-02-04T10:32:50.343Z,18.19
2019-02-04T10:33:50.358Z,18.25
2019-02-04T10:34:50.325Z,18.21
2019-02-04T10:35:50.415Z,18.28
2019-02-04T10:36:50.329Z,18.34
2019-02-04T10:37:50.324Z,18.36
2019-02-04T10:38:50.318Z,18.32
2019-02-04T10:39:50.312Z,18.28
2019-02-04T10:40:50.244Z,18.28
2019-02-04T10:41:50.255Z,18.32
2019-02-04T10:42:50.260Z,18.29
2019-02-04T10:43:50.259Z,18.31
2019-02-04T10:44:50.214Z,18.34
2019-02-04T10:45:50.241Z,18.36
2019-02-04T10:46:50.195Z,18.34
2019-02-04T10:47:50.263Z,18.39
2019-02-04T10:48:50.172Z,18.34
2019-02-04T10:49:50.344Z,18.34
2019-02-04T10:50:50.198Z,18.35
2019-02-04T10:51:50.132Z,18.35
2019-02-04T10:52:50.206Z,18.32
2019-02-04T10:53:50.131Z,18.31
2019-02-04T10:54:50.096Z,18.29
2019-02-04T10:55:50.109Z,18.31
2019-02-04T10:56:50.066Z,18.31
2019-02-04T10:57:50.096Z,18.31
2019-02-04T10:58:50.080Z,18.29
2019-02-04T10:59:49.059Z,18.35
2019-02-04T11:00:50.061Z,18.36
2019-02-04T11:01:50.061Z,18.32
2019-02-04T11:02:50.066Z,18.36
2019-02-04T11:03:51.193Z,18.26
2019-02-04T11:04:50.034Z,18.36
2019-02-04T11:05:50.092Z,18.39
2019-02-04T11:06:49.958Z,18.38
2019-02-04T11:07:49.975Z,18.38
2019-02-04T11:08:49.961Z,18.41
2019-02-04T11:09:49.928Z,18.49
2019-02-04T11:10:49.993Z,18.46
2019-02-04T11:11:49.945Z,18.41
2019-02-04T11:12:49.951Z,18.46
2019-02-04T11:13:49.914Z,18.42
2019-02-04T11:14:49.898Z,18.47
2019-02-04T11:15:50.175Z,18.49
2019-02-04T11:16:49.841Z,18.50
2019-02-04T11:17:49.839Z,18.49
2019-02-04T11:18:49.842Z,18.49
2019-02-04T11:19:49.868Z,18.47
2019-02-04T11:20:57.753Z,18.53
2019-02-04T11:21:49.813Z,18.47
2019-02-04T11:22:49.803Z,18.53
2019-02-04T11:23:49.790Z,18.44
2019-02-04T11:24:49.760Z,18.46
2019-02-04T11:25:49.772Z,18.53
2019-02-04T11:26:49.785Z,18.49
2019-02-04T11:27:49.748Z,18.53
2019-02-04T11:28:49.781Z,18.50
2019-02-04T11:29:49.737Z,18.53
2019-02-04T11:30:49.742Z,18.46
2019-02-04T11:31:49.743Z,18.47
2019-02-04T11:32:49.683Z,18.53
2019-02-04T11:33:49.682Z,18.42
2019-02-04T11:34:49.737Z,18.54
2019-02-04T11:35:49.702Z,18.46
2019-02-04T11:36:49.628Z,18.47
2019-02-04T11:37:50.077Z,18.50
2019-02-04T11:38:49.716Z,18.42
2019-02-04T11:39:49.629Z,18.46
2019-02-04T11:40:49.620Z,18.50
2019-02-04T11:41:49.566Z,18.49
2019-02-04T11:42:49.664Z,18.49
2019-02-04T11:43:49.592Z,18.50
2019-02-04T11:44:49.628Z,18.50
2019-02-04T11:45:49.549Z,18.49
2019-02-04T11:46:49.521Z,18.49
2019-02-04T11:47:49.551Z,18.50
2019-02-04T11:48:49.553Z,18.47
2019-02-04T11:49:49.492Z,18.51
2019-02-04T11:50:49.479Z,18.50
2019-02-04T11:51:49.462Z,18.44
2019-02-04T11:52:49.479Z,18.34
2019-02-04T11:53:49.481Z,18.39
2019-02-04T11:54:49.490Z,18.46
2019-02-04T11:55:49.501Z,18.32
2019-02-04T11:56:49.402Z,18.39
2019-02-04T11:57:49.469Z,18.28
2019-02-04T11:58:49.410Z,18.38
2019-02-04T11:59:49.382Z,18.38
2019-02-04T12:00:49.358Z,18.35
2019-02-04T12:01:49.469Z,18.29
2019-02-04T12:02:49.332Z,18.35
2019-02-04T12:03:49.340Z,18.19
2019-02-04T12:04:49.316Z,18.26
2019-02-04T12:05:49.309Z,18.25
2019-02-04T12:06:49.368Z,18.23
2019-02-04T12:07:49.303Z,18.26
2019-02-04T12:08:49.309Z,18.25
2019-02-04T12:09:50.205Z,18.20
2019-02-04T12:10:49.257Z,18.19
2019-02-04T12:11:49.253Z,18.28
2019-02-04T12:12:49.231Z,18.16
2019-02-04T12:13:49.236Z,18.19
2019-02-04T12:14:49.204Z,18.26
2019-02-04T12:15:49.278Z,18.17
2019-02-04T12:16:49.208Z,18.26
2019-02-04T12:17:49.245Z,18.20
2019-02-04T12:18:49.185Z,18.31
2019-02-04T12:19:49.179Z,18.21
2019-02-04T12:20:49.147Z,18.23
2019-02-04T12:21:49.127Z,18.21
2019-02-04T12:22:49.130Z,18.16
2019-02-04T12:23:49.128Z,18.14
2019-02-04T12:24:49.111Z,18.14
2019-02-04T12:25:49.225Z,18.20
2019-02-04T12:26:49.069Z,18.14
2019-02-04T12:27:49.080Z,18.11
2019-02-04T12:28:49.085Z,18.14
2019-02-04T12:29:49.056Z,18.14
2019-02-04T12:30:49.061Z,18.11
2019-02-04T12:31:49.020Z,18.04
2019-02-04T12:32:49.054Z,18.04
2019-02-04T12:33:49.025Z,18.02
2019-02-04T12:34:48.999Z,17.96
2019-02-04T12:35:48.978Z,17.95
2019-02-04T12:36:49.007Z,17.98
2019-02-04T12:37:48.975Z,17.92
2019-02-04T12:38:48.971Z,17.95
2019-02-04T12:39:48.947Z,18.07
2019-02-04T12:40:48.920Z,17.98
2019-02-04T12:41:50.763Z,17.92
2019-02-04T12:42:48.914Z,17.99
2019-02-04T12:43:48.881Z,18.01
2019-02-04T12:44:48.875Z,17.99
2019-02-04T12:45:48.882Z,18.07
2019-02-04T12:46:48.860Z,18.07
2019-02-04T12:47:48.889Z,18.16
2019-02-04T12:48:48.852Z,18.19
2019-02-04T12:49:48.842Z,18.20
2019-02-04T12:50:48.829Z,18.32
2019-02-04T12:51:48.818Z,18.29
2019-02-04T12:52:48.805Z,18.35